Time;durP1;ratioP1;P1;durP2;ratioP2;P2;SDS_P1;SDS_P2;PMS_P1;PMS_P2;Temp;Humidity;BMP_temperature;BMP_pressure;BME280_temperature;BME280_humidity;BME280_pressure;Samples;Min_cycle;Max_cycle;Signal;HPM_P1;HPM_P2
2022/07/05 00:00:57;;;;;;;2.97;2.08;;;;;;;;;;5028026;28;20201;-66
2022/07/05 00:03:22;;;;;;;4.13;1.80;;;;;;;;;;5029115;28;20708;-66
2022/07/05 00:05:48;;;;;;;3.60;2.30;;;;;;;;;;5029377;28;20213;-66
2022/07/05 00:08:14;;;;;;;5.45;2.28;;;;;;;;;;5020936;28;20275;-64
2022/07/05 00:10:39;;;;;;;4.20;2.00;;;;;;;;;;5025659;28;20183;-66
2022/07/05 00:13:05;;;;;;;2.85;1.77;;;;;;;;;;5024305;28;20220;-66
2022/07/05 00:15:31;;;;;;;2.53;1.63;;;;;;;;;;5028926;28;20182;-66
2022/07/05 00:17:56;;;;;;;2.25;1.90;;;;;;;;;;5028985;28;20213;-66
2022/07/05 00:20:22;;;;;;;3.00;1.88;;;;;;;;;;5025428;28;20260;-66
2022/07/05 00:22:47;;;;;;;2.80;2.10;;;;;;;;;;5033753;28;20596;-66
2022/07/05 00:25:13;;;;;;;4.40;2.25;;;;;;;;;;5041071;28;20189;-66
2022/07/05 00:27:38;;;;;;;4.32;2.22;;;;;;;;;;5022472;28;20253;-66
2022/07/05 00:30:05;;;;;;;4.15;2.70;;;;;;;;;;5026511;28;20178;-67
2022/07/05 00:32:31;;;;;;;3.20;2.50;;;;;;;;;;5030738;28;20225;-66
2022/07/05 00:34:56;;;;;;;2.78;2.33;;;;;;;;;;5039677;28;20186;-66
2022/07/05 00:37:21;;;;;;;5.57;2.30;;;;;;;;;;5029492;28;20189;-67
2022/07/05 00:39:47;;;;;;;2.45;2.22;;;;;;;;;;5028314;28;20300;-67
2022/07/05 00:42:12;;;;;;;9.60;2.83;;;;;;;;;;5011403;28;20190;-66
2022/07/05 00:44:41;;;;;;;7.38;2.80;;;;;;;;;;5030212;28;20194;-66
2022/07/05 00:47:07;;;;;;;2.95;2.33;;;;;;;;;;5029988;28;20178;-66
2022/07/05 00:49:34;;;;;;;3.17;2.60;;;;;;;;;;5039772;28;20217;-66
2022/07/05 00:52:00;;;;;;;4.97;2.95;;;;;;;;;;5027389;28;20665;-66
2022/07/05 00:54:27;;;;;;;3.75;2.30;;;;;;;;;;5024805;28;20666;-66
2022/07/05 00:56:53;;;;;;;3.55;2.30;;;;;;;;;;5024805;28;20282;-66
2022/07/05 00:59:18;;;;;;;4.97;2.90;;;;;;;;;;5029510;28;20445;-67
2022/07/05 01:01:44;;;;;;;5.72;3.25;;;;;;;;;;5012871;28;20179;-67
2022/07/05 01:04:11;;;;;;;5.97;3.00;;;;;;;;;;5020768;28;20194;-66
2022/07/05 01:06:36;;;;;;;5.88;3.17;;;;;;;;;;5023620;28;20179;-66
2022/07/05 01:09:02;;;;;;;7.07;3.60;;;;;;;;;;5021051;28;20182;-66
2022/07/05 01:11:28;;;;;;;4.07;3.17;;;;;;;;;;5028482;28;20193;-67
2022/07/05 01:13:54;;;;;;;3.05;2.75;;;;;;;;;;5029109;28;20555;-67
2022/07/05 01:16:20;;;;;;;7.82;3.65;;;;;;;;;;5028519;28;20364;-68
2022/07/05 01:18:46;;;;;;;5.38;3.90;;;;;;;;;;5032729;28;20189;-67
2022/07/05 01:21:15;;;;;;;5.45;4.10;;;;;;;;;;5026452;28;20181;-66
2022/07/05 01:23:40;;;;;;;5.05;3.97;;;;;;;;;;5028130;28;20252;-66
2022/07/05 01:26:06;;;;;;;5.90;4.10;;;;;;;;;;5037095;28;20649;-67
2022/07/05 01:28:32;;;;;;;7.55;4.43;;;;;;;;;;5035436;28;20229;-66
2022/07/05 01:31:00;;;;;;;6.13;4.18;;;;;;;;;;5027928;28;20205;-66
2022/07/05 01:33:30;;;;;;;6.13;4.13;;;;;;;;;;5025729;28;20190;-66
2022/07/05 01:35:57;;;;;;;6.78;4.82;;;;;;;;;;5034845;28;20308;-67
2022/07/05 01:38:22;;;;;;;6.30;4.90;;;;;;;;;;5028744;28;20376;-67
2022/07/05 01:40:51;;;;;;;6.90;5.03;;;;;;;;;;5025543;28;20300;-67
2022/07/05 01:43:18;;;;;;;6.55;4.88;;;;;;;;;;5034230;28;20593;-66
2022/07/05 01:45:46;;;;;;;6.05;4.97;;;;;;;;;;5027739;28;20656;-66
2022/07/05 01:48:17;;;;;;;7.40;4.40;;;;;;;;;;5031572;28;20186;-66
2022/07/05 01:50:57;;;;;;;6.50;4.70;;;;;;;;;;5026012;28;20257;-65
2022/07/05 01:53:27;;;;;;;7.70;5.32;;;;;;;;;;5029328;28;20189;-66
2022/07/05 01:55:52;;;;;;;9.48;5.13;;;;;;;;;;5032016;28;20209;-67
2022/07/05 01:58:18;;;;;;;6.60;5.10;;;;;;;;;;5032687;28;20185;-67
2022/07/05 02:00:45;;;;;;;6.72;4.80;;;;;;;;;;5024361;28;20213;-67
2022/07/05 02:03:11;;;;;;;10.02;4.95;;;;;;;;;;5040897;28;20228;-67
2022/07/05 02:05:37;;;;;;;8.10;4.68;;;;;;;;;;5034373;28;20489;-67
2022/07/05 02:08:02;;;;;;;8.00;4.38;;;;;;;;;;5027489;28;20280;-66
2022/07/05 02:10:28;;;;;;;6.07;4.80;;;;;;;;;;5029330;28;20650;-67
2022/07/05 02:12:53;;;;;;;6.00;4.95;;;;;;;;;;5027436;28;20662;-67
2022/07/05 02:15:18;;;;;;;7.53;5.03;;;;;;;;;;5042137;28;20556;-67
2022/07/05 02:17:44;;;;;;;5.47;4.97;;;;;;;;;;5024599;28;20601;-67
2022/07/05 02:20:09;;;;;;;7.28;4.93;;;;;;;;;;5024613;28;20208;-67
2022/07/05 02:22:35;;;;;;;6.03;4.90;;;;;;;;;;5025595;28;20186;-67
2022/07/05 02:25:00;;;;;;;6.22;4.63;;;;;;;;;;5040660;28;20179;-67
2022/07/05 02:27:26;;;;;;;5.80;4.68;;;;;;;;;;5043119;28;20232;-67
2022/07/05 02:29:52;;;;;;;5.28;4.40;;;;;;;;;;5023878;28;20178;-67
2022/07/05 02:32:17;;;;;;;7.10;4.60;;;;;;;;;;5022232;28;20237;-67
2022/07/05 02:34:42;;;;;;;9.23;5.43;;;;;;;;;;5027604;28;20494;-67
2022/07/05 02:37:07;;;;;;;10.18;5.32;;;;;;;;;;5027770;28;20175;-67
2022/07/05 02:39:33;;;;;;;6.30;5.25;;;;;;;;;;5021183;28;20297;-67
2022/07/05 02:41:58;;;;;;;7.30;5.57;;;;;;;;;;5024020;28;20580;-67
2022/07/05 02:44:23;;;;;;;7.47;5.80;;;;;;;;;;5029553;28;20189;-67
2022/07/05 02:46:49;;;;;;;6.32;5.45;;;;;;;;;;5025628;28;20248;-67
2022/07/05 02:49:15;;;;;;;6.57;5.60;;;;;;;;;;5035941;28;20186;-67
2022/07/05 02:51:40;;;;;;;8.00;6.15;;;;;;;;;;5027696;28;20178;-67
2022/07/05 02:54:05;;;;;;;9.88;6.07;;;;;;;;;;5029687;28;20190;-67
2022/07/05 02:56:31;;;;;;;7.18;5.72;;;;;;;;;;5023219;28;20197;-67
2022/07/05 02:58:56;;;;;;;8.55;6.07;;;;;;;;;;5026475;28;20182;-66
2022/07/05 03:01:22;;;;;;;6.35;5.10;;;;;;;;;;5040366;28;20193;-67
2022/07/05 03:03:47;;;;;;;9.30;5.80;;;;;;;;;;5032666;28;20220;-66
2022/07/05 03:06:12;;;;;;;7.00;5.93;;;;;;;;;;5020249;28;20186;-66
2022/07/05 03:08:38;;;;;;;7.50;6.22;;;;;;;;;;5017907;28;20396;-67
2022/07/05 03:11:03;;;;;;;10.20;6.40;;;;;;;;;;5027420;28;20633;-67
2022/07/05 03:13:29;;;;;;;10.88;6.75;;;;;;;;;;5020540;28;20178;-66
2022/07/05 03:15:54;;;;;;;10.60;7.05;;;;;;;;;;5026375;28;20178;-66
2022/07/05 03:18:19;;;;;;;13.23;7.35;;;;;;;;;;5025495;28;20192;-66
2022/07/05 03:20:45;;;;;;;7.43;6.25;;;;;;;;;;5038825;28;20202;-66
2022/07/05 03:23:10;;;;;;;9.02;6.88;;;;;;;;;;5027683;28;20543;-67
2022/07/05 03:25:35;;;;;;;8.95;6.45;;;;;;;;;;5031123;28;20626;-67
2022/07/05 03:28:01;;;;;;;7.72;6.43;;;;;;;;;;5028831;28;20230;-66
2022/07/05 03:30:26;;;;;;;10.65;6.90;;;;;;;;;;5030265;28;20166;-66
2022/07/05 03:32:52;;;;;;;7.85;5.97;;;;;;;;;;5030184;28;20216;-67
2022/07/05 03:35:17;;;;;;;8.02;6.78;;;;;;;;;;5030334;28;20676;-67
2022/07/05 03:37:42;;;;;;;8.20;6.22;;;;;;;;;;5025234;28;20578;-66
2022/07/05 03:40:08;;;;;;;8.18;6.63;;;;;;;;;;5027187;28;20210;-68
2022/07/05 03:42:35;;;;;;;10.10;6.70;;;;;;;;;;5033523;28;20190;-66
2022/07/05 03:45:01;;;;;;;9.18;6.43;;;;;;;;;;5026496;28;20190;-66
2022/07/05 03:47:26;;;;;;;8.48;7.22;;;;;;;;;;5032851;28;20452;-67
2022/07/05 03:49:51;;;;;;;9.50;6.18;;;;;;;;;;5030471;28;20187;-66
2022/07/05 03:52:17;;;;;;;8.30;6.63;;;;;;;;;;5019869;28;20186;-68
2022/07/05 03:54:44;;;;;;;11.48;6.93;;;;;;;;;;5041344;28;20185;-68
2022/07/05 03:57:10;;;;;;;8.40;6.65;;;;;;;;;;5019208;28;20648;-67
2022/07/05 03:59:35;;;;;;;9.77;7.10;;;;;;;;;;5034878;28;20288;-67
2022/07/05 04:02:01;;;;;;;10.45;6.97;;;;;;;;;;5038480;28;20649;-67
2022/07/05 04:04:26;;;;;;;9.25;6.85;;;;;;;;;;5041841;28;20544;-66
2022/07/05 04:06:51;;;;;;;10.57;6.68;;;;;;;;;;5040063;28;20196;-67
2022/07/05 04:09:17;;;;;;;6.75;5.85;;;;;;;;;;5038858;28;20729;-67
2022/07/05 04:11:42;;;;;;;9.73;7.07;;;;;;;;;;5040583;28;20210;-67
2022/07/05 04:14:09;;;;;;;12.15;6.40;;;;;;;;;;5045428;28;20181;-67
2022/07/05 04:16:34;;;;;;;8.88;6.38;;;;;;;;;;5032114;28;20713;-67
2022/07/05 04:18:59;;;;;;;8.43;5.90;;;;;;;;;;5042939;28;20189;-66
2022/07/05 04:21:25;;;;;;;10.38;6.20;;;;;;;;;;5042506;28;20241;-67
2022/07/05 04:23:50;;;;;;;9.73;5.72;;;;;;;;;;5023675;28;20205;-66
2022/07/05 04:26:15;;;;;;;6.28;5.38;;;;;;;;;;5042550;28;20208;-66
2022/07/05 04:28:41;;;;;;;10.60;5.80;;;;;;;;;;5033721;28;20832;-66
2022/07/05 04:31:06;;;;;;;7.30;5.22;;;;;;;;;;5025755;28;20202;-66
2022/07/05 04:33:32;;;;;;;9.60;5.22;;;;;;;;;;5028357;28;20186;-65
2022/07/05 04:35:57;;;;;;;7.07;5.30;;;;;;;;;;5036049;28;20486;-66
2022/07/05 04:38:22;;;;;;;5.75;4.80;;;;;;;;;;5035373;28;20190;-65
2022/07/05 04:40:48;;;;;;;10.38;5.28;;;;;;;;;;5031122;28;20202;-66
2022/07/05 04:43:13;;;;;;;6.50;4.82;;;;;;;;;;5014224;28;20218;-65
2022/07/05 04:45:38;;;;;;;9.73;5.47;;;;;;;;;;5042302;28;20182;-66
2022/07/05 04:48:04;;;;;;;5.55;4.20;;;;;;;;;;5026920;28;20212;-66
2022/07/05 04:50:30;;;;;;;5.70;4.68;;;;;;;;;;5028937;28;20603;-65
2022/07/05 04:52:55;;;;;;;7.03;5.20;;;;;;;;;;5024518;28;20506;-66
2022/07/05 04:55:20;;;;;;;8.65;4.75;;;;;;;;;;5032239;28;20216;-66
2022/07/05 04:57:45;;;;;;;8.00;4.88;;;;;;;;;;5022155;28;20178;-65
2022/07/05 05:00:13;;;;;;;9.70;5.43;;;;;;;;;;5019848;28;20206;-66
2022/07/05 05:02:38;;;;;;;7.38;5.10;;;;;;;;;;5031618;28;20183;-65
2022/07/05 05:05:04;;;;;;;7.25;5.20;;;;;;;;;;5030082;28;20540;-65
2022/07/05 05:07:29;;;;;;;8.68;5.32;;;;;;;;;;5020623;28;20661;-65
2022/07/05 05:09:55;;;;;;;8.98;5.78;;;;;;;;;;5019123;28;20182;-65
2022/07/05 05:12:21;;;;;;;9.48;5.55;;;;;;;;;;5017769;28;20691;-67
2022/07/05 05:14:46;;;;;;;6.13;5.22;;;;;;;;;;5013434;28;20193;-64
2022/07/05 05:17:12;;;;;;;11.90;5.88;;;;;;;;;;5027844;28;20709;-64
2022/07/05 05:19:37;;;;;;;12.60;5.57;;;;;;;;;;5026454;28;20205;-65
2022/07/05 05:22:03;;;;;;;7.57;5.53;;;;;;;;;;5025067;28;20182;-66
2022/07/05 05:24:28;;;;;;;9.98;5.30;;;;;;;;;;5025454;28;20650;-65
2022/07/05 05:26:54;;;;;;;10.00;5.75;;;;;;;;;;5027802;28;20224;-66
2022/07/05 05:29:22;;;;;;;8.75;5.18;;;;;;;;;;5022912;28;20183;-66
2022/07/05 05:31:48;;;;;;;8.75;5.30;;;;;;;;;;5026420;28;20205;-66
2022/07/05 05:34:13;;;;;;;6.95;4.57;;;;;;;;;;5030929;28;20185;-65
2022/07/05 05:36:39;;;;;;;9.73;5.75;;;;;;;;;;5032628;28;20536;-65
2022/07/05 05:39:04;;;;;;;7.38;5.68;;;;;;;;;;5023042;28;20170;-65
2022/07/05 05:41:30;;;;;;;11.25;5.15;;;;;;;;;;5029349;28;20193;-65
2022/07/05 05:43:55;;;;;;;9.15;5.53;;;;;;;;;;5029952;28;20256;-65
2022/07/05 05:46:20;;;;;;;7.75;5.13;;;;;;;;;;5030982;28;20174;-66
2022/07/05 05:48:46;;;;;;;6.18;5.25;;;;;;;;;;5028300;28;20189;-66
2022/07/05 05:51:11;;;;;;;10.07;5.53;;;;;;;;;;5023688;28;20221;-65
2022/07/05 05:53:36;;;;;;;7.18;5.38;;;;;;;;;;5037961;28;20212;-66
2022/07/05 05:56:02;;;;;;;9.10;5.68;;;;;;;;;;5045353;28;20648;-65
2022/07/05 05:58:27;;;;;;;9.32;5.28;;;;;;;;;;5040400;28;20533;-65
2022/07/05 06:00:53;;;;;;;7.97;5.22;;;;;;;;;;5035890;28;20220;-65
2022/07/05 06:03:20;;;;;;;8.05;5.00;;;;;;;;;;5031468;28;20185;-65
2022/07/05 06:05:45;;;;;;;10.48;5.70;;;;;;;;;;5042908;28;20189;-65
2022/07/05 06:08:11;;;;;;;7.20;5.38;;;;;;;;;;5044980;28;20703;-64
2022/07/05 06:10:37;;;;;;;10.52;5.30;;;;;;;;;;5043903;28;20536;-65
2022/07/05 06:13:04;;;;;;;10.35;5.43;;;;;;;;;;5035254;28;20194;-65
2022/07/05 06:15:30;;;;;;;8.63;4.63;;;;;;;;;;5027476;28;20182;-66
2022/07/05 06:17:55;;;;;;;5.60;5.05;;;;;;;;;;5030778;28;20649;-65
2022/07/05 06:20:24;;;;;;;10.57;5.60;;;;;;;;;;5028571;28;20232;-64
2022/07/05 06:22:51;;;;;;;7.65;5.25;;;;;;;;;;5032910;28;20537;-64
2022/07/05 06:25:17;;;;;;;7.38;4.78;;;;;;;;;;5032633;28;20174;-65
2022/07/05 06:27:45;;;;;;;9.43;5.40;;;;;;;;;;5033150;28;20343;-65
2022/07/05 06:30:12;;;;;;;11.50;5.43;;;;;;;;;;4331802;28;10000828;-65
2022/07/05 06:32:38;;;;;;;9.05;5.85;;;;;;;;;;5024668;28;20210;-64
2022/07/05 06:35:03;;;;;;;9.27;4.88;;;;;;;;;;5019265;28;20570;-65
2022/07/05 06:37:53;;;;;;;7.20;5.50;;;;;;;;;;5013997;28;20196;-65
2022/07/05 06:40:20;;;;;;;11.05;5.30;;;;;;;;;;5027888;28;20792;-65
2022/07/05 06:42:45;;;;;;;9.07;5.45;;;;;;;;;;5023363;28;20600;-66
2022/07/05 06:45:11;;;;;;;7.80;5.00;;;;;;;;;;5018662;28;20246;-65
2022/07/05 06:47:37;;;;;;;7.03;5.40;;;;;;;;;;5026288;28;20710;-65
2022/07/05 06:50:04;;;;;;;8.82;5.40;;;;;;;;;;5036960;28;20671;-65
2022/07/05 06:52:32;;;;;;;5.78;4.80;;;;;;;;;;5022887;28;20325;-65
2022/07/05 06:54:58;;;;;;;8.98;5.63;;;;;;;;;;5021960;28;20189;-65
2022/07/05 06:57:23;;;;;;;7.97;4.50;;;;;;;;;;5011925;28;20198;-64
2022/07/05 06:59:50;;;;;;;8.40;5.68;;;;;;;;;;5025375;28;20202;-64
2022/07/05 07:02:15;;;;;;;9.38;5.28;;;;;;;;;;5037862;28;20239;-63
2022/07/05 07:04:41;;;;;;;9.73;4.65;;;;;;;;;;5028390;28;20185;-64
2022/07/05 07:09:50;;;;;;;10.68;4.93;;;;;;;;;;5027524;28;20220;-63
2022/07/05 07:12:15;;;;;;;7.13;4.90;;;;;;;;;;5032260;28;20209;-64
2022/07/05 07:14:41;;;;;;;4.90;4.45;;;;;;;;;;5037525;28;20186;-64
2022/07/05 07:17:06;;;;;;;6.07;4.68;;;;;;;;;;5033426;28;20186;-64
2022/07/05 07:19:32;;;;;;;8.77;4.55;;;;;;;;;;5022092;28;20789;-64
2022/07/05 07:21:57;;;;;;;9.40;4.75;;;;;;;;;;5026249;28;20252;-64
2022/07/05 07:24:22;;;;;;;7.25;4.80;;;;;;;;;;5026452;28;20710;-64
2022/07/05 07:27:03;;;;;;;7.05;4.90;;;;;;;;;;5018958;28;20276;-64
2022/07/05 07:29:34;;;;;;;5.70;4.30;;;;;;;;;;5027842;28;20182;-64
2022/07/05 07:32:00;;;;;;;10.23;4.57;;;;;;;;;;5042862;28;20742;-65
2022/07/05 07:34:27;;;;;;;5.30;3.83;;;;;;;;;;5034377;28;20194;-64
2022/07/05 07:36:53;;;;;;;9.00;3.50;;;;;;;;;;5043323;28;20234;-64
2022/07/05 07:39:18;;;;;;;7.28;3.60;;;;;;;;;;5031210;28;20209;-64
2022/07/05 07:41:44;;;;;;;6.70;4.05;;;;;;;;;;5026889;28;20556;-65
2022/07/05 07:44:09;;;;;;;7.90;3.70;;;;;;;;;;5039738;28;20595;-65
2022/07/05 07:46:35;;;;;;;7.50;2.92;;;;;;;;;;5026015;28;20232;-63
2022/07/05 07:49:00;;;;;;;5.13;2.85;;;;;;;;;;5032431;28;20210;-64
2022/07/05 07:51:27;;;;;;;6.55;2.55;;;;;;;;;;5030763;28;20201;-64
2022/07/05 07:53:52;;;;;;;4.93;2.67;;;;;;;;;;5028518;28;20182;-64
2022/07/05 07:56:17;;;;;;;3.63;2.25;;;;;;;;;;5027388;28;20204;-64
2022/07/05 07:58:43;;;;;;;2.65;2.00;;;;;;;;;;5028646;28;20213;-64
2022/07/05 08:01:10;;;;;;;4.88;1.90;;;;;;;;;;5019676;28;20221;-64
2022/07/05 08:03:37;;;;;;;3.70;1.90;;;;;;;;;;5021689;28;20194;-68
2022/07/05 08:06:02;;;;;;;3.38;2.20;;;;;;;;;;5029890;28;20182;-66
2022/07/05 08:08:28;;;;;;;6.03;2.25;;;;;;;;;;5028279;28;20182;-65
2022/07/05 08:10:53;;;;;;;4.32;2.15;;;;;;;;;;5030591;28;20356;-66
2022/07/05 08:13:18;;;;;;;3.17;1.70;;;;;;;;;;5032805;28;20178;-65
2022/07/05 08:15:44;;;;;;;6.47;1.67;;;;;;;;;;5024142;28;20589;-65
2022/07/05 08:23:37;;;;;;;2.22;1.40;;;;;;;;;;5043023;28;20242;-66
2022/07/05 08:26:02;;;;;;;2.08;1.20;;;;;;;;;;5022811;28;20702;-65
2022/07/05 08:28:28;;;;;;;2.83;1.42;;;;;;;;;;5028814;28;20222;-65
2022/07/05 08:30:53;;;;;;;5.65;1.50;;;;;;;;;;5031283;28;20325;-66
2022/07/05 08:33:18;;;;;;;2.55;1.40;;;;;;;;;;5028625;28;20178;-63
2022/07/05 08:35:44;;;;;;;3.33;1.88;;;;;;;;;;5031837;28;20185;-65
2022/07/05 08:38:09;;;;;;;5.18;1.85;;;;;;;;;;5044209;28;20684;-65
2022/07/05 08:40:38;;;;;;;3.97;2.33;;;;;;;;;;5019303;28;20642;-65
2022/07/05 08:43:05;;;;;;;4.35;2.13;;;;;;;;;;5033336;28;20264;-66
2022/07/05 08:45:32;;;;;;;4.50;1.55;;;;;;;;;;5035681;28;20401;-66
2022/07/05 08:48:00;;;;;;;1.90;1.55;;;;;;;;;;5031218;28;20178;-65
2022/07/05 08:50:26;;;;;;;2.70;1.83;;;;;;;;;;5019751;28;20649;-65
2022/07/05 08:52:52;;;;;;;4.55;1.83;;;;;;;;;;5037909;28;20177;-65
2022/07/05 08:55:18;;;;;;;4.72;1.52;;;;;;;;;;5023403;28;20248;-65
2022/07/05 08:57:43;;;;;;;3.17;1.90;;;;;;;;;;5042475;28;20187;-67
2022/07/05 09:00:09;;;;;;;2.63;1.35;;;;;;;;;;5027330;28;20214;-64
2022/07/05 09:02:35;;;;;;;3.78;1.80;;;;;;;;;;5030234;28;20292;-64
2022/07/05 09:05:01;;;;;;;2.85;1.58;;;;;;;;;;5026179;28;20329;-65
2022/07/05 09:07:32;;;;;;;2.65;1.40;;;;;;;;;;5036380;28;20189;-65
2022/07/05 09:09:59;;;;;;;1.48;1.33;;;;;;;;;;5029555;28;20626;-65
2022/07/05 09:12:25;;;;;;;3.67;1.35;;;;;;;;;;5032712;28;20220;-65
2022/07/05 09:14:51;;;;;;;4.63;1.60;;;;;;;;;;5025246;28;20194;-65
2022/07/05 09:17:16;;;;;;;3.72;1.90;;;;;;;;;;5027415;28;20240;-66
2022/07/05 09:19:42;;;;;;;3.40;1.88;;;;;;;;;;5038404;28;20699;-66
2022/07/05 09:22:08;;;;;;;2.70;1.63;;;;;;;;;;5036993;28;20217;-66
2022/07/05 09:24:43;;;;;;;2.72;1.30;;;;;;;;;;5038044;28;20186;-66
2022/07/05 09:27:08;;;;;;;2.72;1.20;;;;;;;;;;5021616;28;20221;-66
2022/07/05 09:29:34;;;;;;;2.15;1.08;;;;;;;;;;5036004;28;20617;-63
2022/07/05 09:31:59;;;;;;;4.25;1.75;;;;;;;;;;5030807;28;20673;-64
2022/07/05 09:34:27;;;;;;;4.18;1.50;;;;;;;;;;5027197;28;20658;-65
2022/07/05 09:36:53;;;;;;;2.47;1.17;;;;;;;;;;5030253;28;20179;-67
2022/07/05 09:39:37;;;;;;;2.33;1.10;;;;;;;;;;5025880;28;20571;-65
2022/07/05 09:42:23;;;;;;;4.28;0.95;;;;;;;;;;5025782;28;20225;-64
2022/07/05 09:44:51;;;;;;;2.47;1.50;;;;;;;;;;5027107;28;20186;-64
2022/07/05 09:47:18;;;;;;;2.20;1.25;;;;;;;;;;5027939;28;20261;-64
2022/07/05 09:49:48;;;;;;;3.58;1.40;;;;;;;;;;5023913;28;20186;-68
2022/07/05 09:52:34;;;;;;;2.35;1.20;;;;;;;;;;5027561;28;20179;-64
2022/07/05 09:55:01;;;;;;;1.63;0.82;;;;;;;;;;5028711;28;20193;-64
2022/07/05 09:57:26;;;;;;;1.38;0.95;;;;;;;;;;5032923;28;20711;-64
2022/07/05 10:00:03;;;;;;;4.05;1.13;;;;;;;;;;5035020;28;20221;-64
2022/07/05 10:02:37;;;;;;;3.40;1.27;;;;;;;;;;5034195;28;20190;-64
2022/07/05 10:05:13;;;;;;;3.30;1.45;;;;;;;;;;5034082;28;20181;-64
2022/07/05 10:07:44;;;;;;;3.30;1.15;;;;;;;;;;5018333;28;20474;-64
2022/07/05 10:10:11;;;;;;;4.70;1.40;;;;;;;;;;5022192;28;20280;-64
2022/07/05 10:12:37;;;;;;;3.70;1.48;;;;;;;;;;5041416;28;20291;-63
2022/07/05 10:15:04;;;;;;;3.50;1.10;;;;;;;;;;5041387;28;20344;-64
2022/07/05 10:17:35;;;;;;;2.08;1.33;;;;;;;;;;5037870;28;20266;-64
2022/07/05 10:20:04;;;;;;;2.17;1.10;;;;;;;;;;5044396;28;20680;-64
2022/07/05 10:22:29;;;;;;;4.53;1.10;;;;;;;;;;5030989;28;20193;-64
2022/07/05 10:24:55;;;;;;;2.45;1.08;;;;;;;;;;5028221;28;20182;-64
2022/07/05 10:27:23;;;;;;;2.10;1.27;;;;;;;;;;5023375;28;20239;-64
2022/07/05 10:29:49;;;;;;;1.20;1.10;;;;;;;;;;5025442;28;20175;-64
2022/07/05 10:32:15;;;;;;;2.33;1.02;;;;;;;;;;5018130;28;20508;-64
2022/07/05 10:34:41;;;;;;;2.40;0.90;;;;;;;;;;5028695;28;20197;-65
2022/07/05 10:37:06;;;;;;;2.30;1.00;;;;;;;;;;5022981;28;20244;-65
2022/07/05 10:39:34;;;;;;;2.22;1.17;;;;;;;;;;5023782;28;20206;-65
2022/07/05 10:42:01;;;;;;;3.72;1.30;;;;;;;;;;5026069;28;20555;-65
2022/07/05 10:44:34;;;;;;;2.55;1.17;;;;;;;;;;5023648;28;20194;-66
2022/07/05 10:47:12;;;;;;;3.05;1.35;;;;;;;;;;5019835;28;20659;-65
2022/07/05 10:49:39;;;;;;;2.58;1.00;;;;;;;;;;5021579;28;20706;-65
2022/07/05 10:52:05;;;;;;;1.20;0.95;;;;;;;;;;5033375;28;20646;-65
2022/07/05 10:54:31;;;;;;;2.72;1.10;;;;;;;;;;5027523;28;20194;-65
2022/07/05 10:57:26;;;;;;;1.48;1.20;;;;;;;;;;5024520;28;20177;-63
2022/07/05 11:00:09;;;;;;;1.83;1.00;;;;;;;;;;5026021;28;20292;-65
2022/07/05 11:02:35;;;;;;;2.67;1.33;;;;;;;;;;4333673;28;10001731;-66
2022/07/05 11:05:01;;;;;;;1.80;1.30;;;;;;;;;;5024702;28;20193;-65
2022/07/05 11:08:04;;;;;;;3.78;0.90;;;;;;;;;;5028878;28;20235;-65
2022/07/05 11:10:33;;;;;;;2.25;0.90;;;;;;;;;;5017642;28;20191;-65
2022/07/05 11:12:58;;;;;;;2.05;1.23;;;;;;;;;;5023805;28;20274;-66
2022/07/05 11:15:24;;;;;;;2.10;1.15;;;;;;;;;;5031961;28;20260;-65
2022/07/05 11:17:49;;;;;;;1.92;1.33;;;;;;;;;;5037830;28;20273;-64
2022/07/05 11:20:27;;;;;;;2.22;1.20;;;;;;;;;;5025377;28;20213;-66
2022/07/05 11:23:05;;;;;;;3.08;1.35;;;;;;;;;;5027524;28;20265;-65
2022/07/05 11:25:33;;;;;;;5.65;1.00;;;;;;;;;;5033420;28;20231;-64
2022/07/05 11:28:00;;;;;;;2.47;1.20;;;;;;;;;;5031198;28;20324;-64
2022/07/05 11:30:26;;;;;;;1.55;1.08;;;;;;;;;;5017795;28;20691;-65
2022/07/05 11:32:51;;;;;;;3.35;1.30;;;;;;;;;;5023405;28;20200;-64
2022/07/05 11:35:19;;;;;;;2.95;1.20;;;;;;;;;;5023508;28;20208;-64
2022/07/05 11:38:04;;;;;;;1.17;1.08;;;;;;;;;;5026975;28;20183;-65
2022/07/05 11:40:31;;;;;;;3.95;1.40;;;;;;;;;;5027596;28;20202;-65
2022/07/05 11:42:57;;;;;;;1.52;1.27;;;;;;;;;;5027300;28;20174;-65
2022/07/05 11:45:23;;;;;;;4.10;1.80;;;;;;;;;;5023092;28;20201;-65
2022/07/05 11:47:48;;;;;;;5.07;1.70;;;;;;;;;;5026286;28;20638;-64
2022/07/05 11:50:14;;;;;;;2.83;1.17;;;;;;;;;;5035944;28;20188;-65
2022/07/05 11:52:40;;;;;;;4.90;1.75;;;;;;;;;;5034204;28;20261;-65
2022/07/05 11:55:08;;;;;;;4.78;1.40;;;;;;;;;;5033210;28;20339;-64
2022/07/05 11:57:33;;;;;;;2.00;0.90;;;;;;;;;;5031223;28;20284;-64
2022/07/05 11:59:59;;;;;;;6.05;1.30;;;;;;;;;;5032447;28;20238;-66
2022/07/05 12:02:24;;;;;;;4.57;0.98;;;;;;;;;;5022313;28;20264;-65
2022/07/05 12:04:52;;;;;;;3.42;1.30;;;;;;;;;;5023181;28;20182;-64
2022/07/05 12:07:35;;;;;;;2.38;1.50;;;;;;;;;;5027999;28;20209;-64
2022/07/05 12:12:47;;;;;;;2.53;1.10;;;;;;;;;;5024553;28;20201;-66
2022/07/05 12:15:14;;;;;;;2.97;1.38;;;;;;;;;;5035686;28;20201;-66
2022/07/05 12:17:42;;;;;;;2.22;1.45;;;;;;;;;;5019576;28;20740;-66
2022/07/05 12:20:11;;;;;;;2.25;1.27;;;;;;;;;;5023975;28;20622;-65
2022/07/05 12:22:41;;;;;;;1.67;1.05;;;;;;;;;;5026845;28;20650;-66
2022/07/05 12:25:10;;;;;;;1.75;0.90;;;;;;;;;;5026959;28;20182;-72
2022/07/05 12:27:37;;;;;;;4.40;1.10;;;;;;;;;;5022915;28;20302;-67
2022/07/05 12:30:04;;;;;;;4.00;1.25;;;;;;;;;;5025703;28;20546;-65
2022/07/05 12:32:30;;;;;;;2.97;1.27;;;;;;;;;;5025407;28;20206;-65
2022/07/05 12:34:56;;;;;;;2.05;0.90;;;;;;;;;;5022183;28;20185;-65
2022/07/05 12:37:27;;;;;;;3.55;0.80;;;;;;;;;;5024503;28;20231;-65
2022/07/05 12:40:07;;;;;;;5.10;1.20;;;;;;;;;;5020194;28;20203;-65
2022/07/05 12:42:37;;;;;;;1.00;0.90;;;;;;;;;;5024006;28;20247;-65
2022/07/05 12:45:14;;;;;;;2.85;1.17;;;;;;;;;;5028772;28;20307;-65
2022/07/05 12:47:53;;;;;;;2.15;1.13;;;;;;;;;;5033356;28;20272;-64
2022/07/05 12:50:24;;;;;;;3.42;1.48;;;;;;;;;;5021000;28;20414;-66
2022/07/05 12:58:55;;;;;;;3.53;1.23;;;;;;;;;;5035383;28;20320;-67
2022/07/05 13:01:25;;;;;;;7.05;1.20;;;;;;;;;;5017624;28;20221;-66
2022/07/05 13:04:03;;;;;;;3.65;1.25;;;;;;;;;;5027159;28;20182;-67
2022/07/05 13:06:54;;;;;;;5.05;1.10;;;;;;;;;;5020919;28;20224;-69
2022/07/05 13:09:31;;;;;;;2.92;1.17;;;;;;;;;;5019756;28;20214;-67
2022/07/05 13:12:07;;;;;;;2.28;1.13;;;;;;;;;;5043713;28;20216;-68
2022/07/05 13:14:34;;;;;;;5.13;1.20;;;;;;;;;;5042309;28;20196;-67
2022/07/05 13:16:59;;;;;;;5.30;1.17;;;;;;;;;;5026865;28;20194;-70
2022/07/05 13:19:25;;;;;;;3.45;1.40;;;;;;;;;;5033443;28;20698;-69
2022/07/05 13:21:50;;;;;;;2.55;1.05;;;;;;;;;;5024662;28;20190;-67
2022/07/05 13:24:15;;;;;;;2.78;1.13;;;;;;;;;;5032494;28;20181;-66
2022/07/05 13:26:41;;;;;;;2.33;0.98;;;;;;;;;;5036819;28;20182;-66
2022/07/05 13:29:06;;;;;;;4.13;1.20;;;;;;;;;;5026284;28;20638;-65
2022/07/05 13:31:31;;;;;;;4.57;1.20;;;;;;;;;;5025916;28;20749;-68
2022/07/05 13:33:58;;;;;;;2.72;0.85;;;;;;;;;;5025815;28;20496;-64
2022/07/05 13:36:24;;;;;;;3.65;1.05;;;;;;;;;;5019400;28;20667;-66
2022/07/05 13:38:49;;;;;;;4.05;1.00;;;;;;;;;;5025791;28;20198;-70
2022/07/05 13:41:14;;;;;;;4.28;1.00;;;;;;;;;;5021203;28;20214;-65
2022/07/05 13:43:40;;;;;;;2.85;1.00;;;;;;;;;;5036454;28;20178;-67
2022/07/05 13:46:06;;;;;;;0.77;0.65;;;;;;;;;;5025040;28;20281;-70
2022/07/05 13:48:31;;;;;;;5.20;0.90;;;;;;;;;;5021367;28;20195;-66
2022/07/05 13:50:57;;;;;;;3.67;0.70;;;;;;;;;;5035169;28;20174;-67
2022/07/05 13:53:22;;;;;;;3.00;0.70;;;;;;;;;;5039244;28;20193;-67
2022/07/05 13:55:47;;;;;;;2.22;0.80;;;;;;;;;;5037123;28;20548;-65
2022/07/05 13:58:13;;;;;;;3.95;0.73;;;;;;;;;;5034642;28;20264;-66
2022/07/05 14:00:38;;;;;;;4.18;0.90;;;;;;;;;;5024726;28;20723;-66
2022/07/05 14:03:03;;;;;;;2.03;0.80;;;;;;;;;;5021979;28;20190;-66
2022/07/05 14:05:29;;;;;;;2.15;0.57;;;;;;;;;;5029764;28;20185;-66
2022/07/05 14:07:54;;;;;;;3.42;0.68;;;;;;;;;;5026478;28;20190;-72
2022/07/05 14:10:19;;;;;;;2.15;0.65;;;;;;;;;;5024959;28;20182;-66
2022/07/05 14:12:45;;;;;;;1.45;0.90;;;;;;;;;;5032465;28;20551;-67
2022/07/05 14:15:10;;;;;;;2.35;0.65;;;;;;;;;;5037889;28;20211;-66
2022/07/05 14:17:35;;;;;;;1.65;0.50;;;;;;;;;;5041479;28;20173;-66
2022/07/05 14:20:01;;;;;;;4.22;0.80;;;;;;;;;;5038320;28;20197;-65
2022/07/05 14:22:26;;;;;;;4.60;0.90;;;;;;;;;;5041773;28;20188;-65
2022/07/05 14:24:51;;;;;;;3.00;0.73;;;;;;;;;;5044949;28;20206;-66
2022/07/05 14:27:17;;;;;;;3.78;0.80;;;;;;;;;;5035918;28;20869;-65
2022/07/05 14:29:42;;;;;;;5.72;0.90;;;;;;;;;;5031143;28;20203;-66
2022/07/05 14:32:09;;;;;;;1.30;0.52;;;;;;;;;;5040176;28;20221;-66
2022/07/05 14:34:34;;;;;;;4.30;0.93;;;;;;;;;;5039800;28;20541;-67
2022/07/05 14:36:59;;;;;;;3.75;0.80;;;;;;;;;;5036329;28;20630;-67
2022/07/05 14:39:25;;;;;;;1.17;0.70;;;;;;;;;;5028093;28;20625;-70
2022/07/05 14:41:51;;;;;;;0.90;0.70;;;;;;;;;;5029470;28;20186;-66
2022/07/05 14:44:16;;;;;;;2.28;0.77;;;;;;;;;;5027659;28;20207;-64
2022/07/05 14:46:44;;;;;;;1.35;0.75;;;;;;;;;;5033999;28;20187;-66
2022/07/05 14:49:10;;;;;;;1.25;0.80;;;;;;;;;;5025896;28;20185;-67
2022/07/05 14:51:35;;;;;;;2.33;0.50;;;;;;;;;;5037798;28;20177;-69
2022/07/05 14:54:00;;;;;;;2.60;1.00;;;;;;;;;;5042718;28;20212;-68
2022/07/05 14:56:25;;;;;;;2.22;0.85;;;;;;;;;;5043782;28;20203;-67